Time;durP1;ratioP1;P1;durP2;ratioP2;P2;SDS_P1;SDS_P2;PMS_P1;PMS_P2;Temp;Humidity;BMP_temperature;BMP_pressure;BME280_temperature;BME280_humidity;BME280_pressure;Samples;Min_cycle;Max_cycle;Signal;HPM_P1;HPM_P2
2021/03/19 00:01:04;;;;;;;55.10;19.43;;;;;;;1.29;100.00;96200.88;5036515;28;20239;-73
2021/03/19 00:03:30;;;;;;;50.93;17.60;;;;;;;1.19;100.00;96198.34;5036702;28;20205;-73
2021/03/19 00:05:56;;;;;;;100.50;29.40;;;;;;;1.09;100.00;96202.59;5035665;28;20277;-71
2021/03/19 00:08:23;;;;;;;89.53;26.90;;;;;;;1.04;100.00;96194.34;5036626;28;20203;-72
2021/03/19 00:10:49;;;;;;;73.50;23.23;;;;;;;1.16;100.00;96193.38;5036087;28;20207;-74
2021/03/19 00:13:15;;;;;;;40.77;16.67;;;;;;;1.13;100.00;96198.81;5040014;28;20255;-72
2021/03/19 00:15:41;;;;;;;105.27;31.53;;;;;;;1.09;100.00;96187.84;5040243;28;20228;-72
2021/03/19 00:18:08;;;;;;;58.80;21.17;;;;;;;1.04;100.00;96192.56;5040575;28;20228;-73
2021/03/19 00:20:37;;;;;;;53.83;20.53;;;;;;;0.99;100.00;96189.50;5040333;28;20683;-71
2021/03/19 00:23:04;;;;;;;98.80;29.87;;;;;;;1.01;100.00;96187.63;5040569;28;20212;-72
2021/03/19 00:25:31;;;;;;;86.07;27.93;;;;;;;1.05;100.00;96189.03;5039657;28;21302;-72
2021/03/19 00:27:57;;;;;;;48.37;18.57;;;;;;;1.02;100.00;96185.84;5039919;28;20209;-71
2021/03/19 00:30:24;;;;;;;84.13;28.30;;;;;;;0.97;100.00;96187.97;5040556;28;20200;-72
2021/03/19 00:32:50;;;;;;;59.40;21.83;;;;;;;1.00;100.00;96182.56;5040526;28;20592;-73
2021/03/19 00:35:17;;;;;;;43.07;16.97;;;;;;;1.07;100.00;96188.91;5039537;28;20219;-73
2021/03/19 00:37:43;;;;;;;35.67;15.50;;;;;;;1.11;100.00;96179.94;5040207;28;20605;-73
2021/03/19 00:40:11;;;;;;;38.70;16.67;;;;;;;1.07;100.00;96173.34;5039977;28;20974;-73
2021/03/19 00:42:38;;;;;;;36.23;16.43;;;;;;;1.08;100.00;96175.00;5039448;28;20677;-72
2021/03/19 00:45:06;;;;;;;46.40;18.07;;;;;;;1.09;100.00;96167.09;5039872;28;20225;-72
2021/03/19 00:47:33;;;;;;;46.13;17.63;;;;;;;1.18;100.00;96173.31;5040077;28;20201;-72
2021/03/19 00:49:59;;;;;;;38.80;16.83;;;;;;;1.19;100.00;96170.59;5039729;28;20205;-71
2021/03/19 00:52:25;;;;;;;47.70;18.87;;;;;;;1.19;100.00;96161.03;5040174;28;20205;-72
2021/03/19 00:54:51;;;;;;;41.67;17.07;;;;;;;1.20;100.00;96164.47;5040525;28;20273;-72
2021/03/19 00:57:17;;;;;;;38.17;15.43;;;;;;;1.10;100.00;96173.13;5038854;28;20228;-72
2021/03/19 00:59:44;;;;;;;33.50;14.63;;;;;;;1.14;100.00;96169.31;5039845;28;20209;-73
2021/03/19 01:02:11;;;;;;;34.10;14.53;;;;;;;1.10;100.00;96171.34;5040030;28;20208;-72
2021/03/19 01:04:37;;;;;;;32.10;13.70;;;;;;;1.14;100.00;96156.34;5039963;28;20239;-73
2021/03/19 01:07:03;;;;;;;32.77;14.07;;;;;;;1.09;100.00;96154.13;5039021;28;20200;-73
2021/03/19 01:09:29;;;;;;;27.27;13.00;;;;;;;1.16;100.00;96157.03;5039676;28;20213;-73
2021/03/19 01:11:55;;;;;;;28.10;13.03;;;;;;;1.14;100.00;96153.75;5039583;28;20320;-73
2021/03/19 01:14:21;;;;;;;27.83;12.77;;;;;;;1.14;100.00;96154.56;5039453;28;20220;-73
2021/03/19 01:16:48;;;;;;;28.50;12.27;;;;;;;1.19;100.00;96159.41;5039014;28;20228;-72
2021/03/19 01:19:15;;;;;;;28.63;13.60;;;;;;;1.17;100.00;96154.31;5039568;28;20968;-73
2021/03/19 01:21:41;;;;;;;30.73;13.37;;;;;;;1.11;100.00;96148.78;5039085;28;20237;-72
2021/03/19 01:24:08;;;;;;;31.10;13.60;;;;;;;1.12;100.00;96148.69;5038949;28;20228;-72
2021/03/19 01:26:34;;;;;;;30.00;13.27;;;;;;;1.09;100.00;96142.94;5038493;28;20205;-73
2021/03/19 01:29:00;;;;;;;33.47;14.20;;;;;;;1.03;100.00;96141.66;5039054;28;20218;-72
2021/03/19 01:31:26;;;;;;;26.83;12.23;;;;;;;1.01;100.00;96145.31;5039215;28;21473;-72
2021/03/19 01:33:56;;;;;;;27.63;12.53;;;;;;;1.10;100.00;96144.56;5039242;28;20209;-73
2021/03/19 01:36:21;;;;;;;28.13;13.30;;;;;;;1.10;100.00;96139.38;5038085;28;20219;-72
2021/03/19 01:38:48;;;;;;;26.53;12.40;;;;;;;1.06;100.00;96140.56;5038881;28;20719;-73
2021/03/19 01:41:14;;;;;;;27.30;12.40;;;;;;;1.14;100.00;96140.78;5039216;28;20204;-72
2021/03/19 01:43:41;;;;;;;27.57;13.00;;;;;;;1.12;100.00;96134.88;5039064;28;20271;-73
2021/03/19 01:46:45;;;;;;;29.53;12.03;;;;;;;1.04;100.00;96135.50;5038224;28;20228;-73
2021/03/19 01:49:48;;;;;;;27.20;12.33;;;;;;;0.97;100.00;96130.91;5038758;28;20611;-72
2021/03/19 01:52:51;;;;;;;27.10;12.10;;;;;;;0.94;100.00;96133.75;5038499;28;20686;-73
2021/03/19 01:55:55;;;;;;;25.60;12.30;;;;;;;0.93;100.00;96126.91;5038083;28;20227;-73
2021/03/19 01:58:58;;;;;;;26.33;11.97;;;;;;;0.94;100.00;96116.44;5038881;28;20366;-73
2021/03/19 02:02:01;;;;;;;28.57;12.23;;;;;;;0.90;100.00;96129.75;5037814;28;21133;-73
2021/03/19 02:05:04;;;;;;;28.87;11.93;;;;;;;0.89;100.00;96122.91;5039226;28;20585;-73
2021/03/19 02:08:08;;;;;;;28.33;12.50;;;;;;;0.78;100.00;96117.78;5038236;28;20674;-73
2021/03/19 02:11:11;;;;;;;27.27;11.93;;;;;;;0.88;100.00;96113.50;5038034;28;20324;-72
2021/03/19 02:14:15;;;;;;;24.07;10.73;;;;;;;0.87;100.00;96117.06;5038669;28;20204;-72
2021/03/19 02:17:18;;;;;;;25.67;11.40;;;;;;;0.91;100.00;96119.25;5037484;28;20265;-73
2021/03/19 02:20:21;;;;;;;27.10;11.80;;;;;;;0.95;100.00;96110.28;5038692;28;20270;-73
2021/03/19 02:23:25;;;;;;;26.73;12.10;;;;;;;0.82;100.00;96117.41;5038194;28;20636;-73
2021/03/19 02:26:28;;;;;;;27.87;11.97;;;;;;;0.74;100.00;96118.97;5037669;28;20604;-72
2021/03/19 02:29:31;;;;;;;29.10;12.67;;;;;;;0.73;100.00;96118.13;5037780;28;20695;-73
2021/03/19 02:32:09;;;;;;;27.13;12.50;;;;;;;0.77;100.00;96116.94;5038115;28;20200;-73
2021/03/19 02:34:40;;;;;;;28.57;12.63;;;;;;;0.85;100.00;96121.53;5037993;28;20229;-72
2021/03/19 02:37:09;;;;;;;25.97;12.50;;;;;;;0.96;100.00;96126.69;5036140;28;20232;-72
2021/03/19 02:39:35;;;;;;;27.20;12.17;;;;;;;0.98;100.00;96120.44;5037762;28;20197;-73
2021/03/19 02:42:01;;;;;;;31.60;13.67;;;;;;;1.01;100.00;96119.38;5037807;28;20307;-72
2021/03/19 02:44:27;;;;;;;31.77;13.47;;;;;;;1.06;100.00;96115.44;5038340;28;20224;-73
2021/03/19 02:46:53;;;;;;;30.20;13.97;;;;;;;1.07;100.00;96114.50;5036915;28;20212;-72
2021/03/19 02:49:20;;;;;;;29.77;13.03;;;;;;;1.09;100.00;96125.56;5037444;28;20295;-73
2021/03/19 02:51:46;;;;;;;30.50;13.30;;;;;;;1.11;100.00;96128.03;5037803;28;20212;-73
2021/03/19 02:54:12;;;;;;;29.43;13.13;;;;;;;1.10;100.00;96127.22;5037175;28;20307;-73
2021/03/19 02:56:38;;;;;;;25.47;12.13;;;;;;;1.02;100.00;96132.22;5037057;28;20668;-74
2021/03/19 02:59:04;;;;;;;30.00;13.77;;;;;;;1.00;100.00;96126.31;5037852;28;20207;-73
2021/03/19 03:01:30;;;;;;;31.60;11.93;;;;;;;0.99;100.00;96122.06;5037260;28;20204;-73
2021/03/19 03:03:56;;;;;;;25.80;12.17;;;;;;;1.04;100.00;96127.72;5037571;28;20197;-73
2021/03/19 03:06:35;;;;;;;25.87;11.77;;;;;;;1.00;100.00;96125.50;5036730;28;20299;-74
2021/03/19 03:09:01;;;;;;;32.77;12.63;;;;;;;0.95;100.00;96125.03;5036488;28;20204;-73
2021/03/19 03:11:27;;;;;;;28.03;12.40;;;;;;;0.90;100.00;96119.38;5037504;28;20205;-73
2021/03/19 03:13:53;;;;;;;26.10;12.77;;;;;;;0.87;100.00;96124.84;5038084;28;20208;-73
2021/03/19 03:16:21;;;;;;;30.13;12.93;;;;;;;0.78;100.00;96122.97;5036474;28;20227;-73
2021/03/19 03:18:47;;;;;;;30.20;13.70;;;;;;;0.81;100.00;96117.53;5036753;28;20240;-72
2021/03/19 03:21:13;;;;;;;26.93;12.80;;;;;;;0.87;100.00;96119.66;5037326;28;20261;-73
2021/03/19 03:23:40;;;;;;;28.07;11.77;;;;;;;0.87;100.00;96111.88;5037314;28;20226;-72
2021/03/19 03:26:06;;;;;;;26.23;12.17;;;;;;;0.79;100.00;96114.22;5036274;28;20705;-72
2021/03/19 03:28:32;;;;;;;31.47;12.27;;;;;;;0.83;100.00;96111.28;5037160;28;20303;-73
2021/03/19 03:30:59;;;;;;;26.17;11.93;;;;;;;0.83;100.00;96108.69;5036578;28;20257;-72
2021/03/19 03:33:25;;;;;;;24.30;11.47;;;;;;;0.74;100.00;96119.78;5037003;28;20216;-73
2021/03/19 03:35:52;;;;;;;26.63;12.30;;;;;;;0.72;100.00;96106.09;5035680;28;20228;-72
2021/03/19 03:38:22;;;;;;;24.97;11.70;;;;;;;0.65;100.00;96112.72;5035026;28;20228;-73
2021/03/19 03:40:53;;;;;;;27.07;11.97;;;;;;;0.72;100.00;96100.09;5036789;28;20263;-73
2021/03/19 03:43:19;;;;;;;27.77;12.27;;;;;;;0.71;100.00;96098.44;5036583;28;20675;-71
2021/03/19 03:45:46;;;;;;;28.43;12.00;;;;;;;0.64;100.00;96099.88;5036433;28;20221;-73
2021/03/19 03:48:15;;;;;;;28.27;12.20;;;;;;;0.67;100.00;96094.44;5036179;28;20205;-72
2021/03/19 03:50:43;;;;;;;23.83;11.50;;;;;;;0.70;100.00;96086.41;5036129;28;20209;-72
2021/03/19 03:53:10;;;;;;;26.77;11.77;;;;;;;0.66;100.00;96090.19;5036693;28;20258;-72
2021/03/19 03:55:37;;;;;;;26.43;12.03;;;;;;;0.61;100.00;96088.00;5035870;28;20231;-73
2021/03/19 03:58:05;;;;;;;29.03;11.53;;;;;;;0.56;100.00;96089.31;5036187;28;20224;-72
2021/03/19 04:00:31;;;;;;;27.53;12.17;;;;;;;0.44;100.00;96095.44;5036539;28;20205;-72
2021/03/19 04:02:59;;;;;;;26.47;12.03;;;;;;;0.38;100.00;96095.94;5036553;28;20792;-72
2021/03/19 04:05:28;;;;;;;28.40;12.97;;;;;;;0.48;100.00;96101.22;5035431;28;20278;-73
2021/03/19 04:07:54;;;;;;;24.30;11.43;;;;;;;0.50;100.00;96091.53;5036211;28;20207;-72
2021/03/19 04:10:21;;;;;;;25.07;11.13;;;;;;;0.40;100.00;96096.63;5036773;28;20278;-72
2021/03/19 04:12:47;;;;;;;27.73;11.53;;;;;;;0.35;100.00;96101.34;5036527;28;20250;-73
2021/03/19 04:15:16;;;;;;;31.27;12.47;;;;;;;0.34;100.00;96107.44;5035520;28;20224;-72
2021/03/19 04:17:43;;;;;;;29.70;12.53;;;;;;;0.20;100.00;96102.50;5036641;28;20232;-71
2021/03/19 04:20:11;;;;;;;27.13;12.10;;;;;;;0.30;100.00;96098.28;5036382;28;20232;-73
2021/03/19 04:22:37;;;;;;;23.17;10.83;;;;;;;0.36;100.00;96086.63;5035902;28;20295;-72
2021/03/19 04:25:04;;;;;;;23.67;10.93;;;;;;;0.34;100.00;96091.91;5035981;28;20293;-72
2021/03/19 04:27:33;;;;;;;27.57;11.40;;;;;;;0.39;100.00;96096.75;5036902;28;20218;-72
2021/03/19 04:29:59;;;;;;;31.27;12.67;;;;;;;0.18;100.00;96096.63;5036313;28;20243;-73
2021/03/19 04:32:26;;;;;;;28.43;12.57;;;;;;;0.20;100.00;96102.50;5036167;28;20212;-72
2021/03/19 04:34:52;;;;;;;29.40;12.80;;;;;;;0.38;100.00;96098.53;5036521;28;20225;-72
2021/03/19 04:37:18;;;;;;;30.80;12.50;;;;;;;0.43;100.00;96101.56;5035611;28;20228;-72
2021/03/19 04:39:46;;;;;;;27.60;11.13;;;;;;;0.26;100.00;96104.63;5035727;28;20217;-72
2021/03/19 04:42:13;;;;;;;26.13;11.77;;;;;;;0.35;100.00;96106.50;5036307;28;20646;-72
2021/03/19 04:44:44;;;;;;;25.07;11.07;;;;;;;0.40;100.00;96106.16;5035995;28;20221;-72
2021/03/19 04:47:10;;;;;;;27.40;11.80;;;;;;;0.27;100.00;96101.09;5035434;28;20201;-72
2021/03/19 04:49:38;;;;;;;25.53;11.70;;;;;;;0.40;100.00;96098.41;5036064;28;20719;-72
2021/03/19 04:52:05;;;;;;;26.23;11.50;;;;;;;0.43;100.00;96098.16;5035825;28;20216;-72
2021/03/19 04:54:32;;;;;;;25.63;12.10;;;;;;;0.34;100.00;96102.28;5036009;28;20285;-73
2021/03/19 04:56:58;;;;;;;28.13;11.43;;;;;;;0.23;100.00;96110.06;5035619;28;20205;-72
2021/03/19 04:59:25;;;;;;;25.83;11.87;;;;;;;0.37;100.00;96108.97;5037804;28;20208;-72
2021/03/19 05:01:53;;;;;;;28.37;12.13;;;;;;;0.37;100.00;96107.22;5039385;28;20201;-72
2021/03/19 05:04:21;;;;;;;30.97;12.77;;;;;;;0.39;100.00;96117.47;5039687;28;20220;-72
2021/03/19 05:06:49;;;;;;;29.83;12.80;;;;;;;0.39;100.00;96118.28;5038295;28;20201;-73
2021/03/19 05:09:15;;;;;;;26.53;12.93;;;;;;;0.49;100.00;96115.81;5039722;28;20239;-72
2021/03/19 05:11:41;;;;;;;25.57;12.23;;;;;;;0.47;100.00;96121.13;5039602;28;20690;-72
2021/03/19 05:14:07;;;;;;;27.43;12.27;;;;;;;0.43;100.00;96124.06;5039039;28;20723;-71
2021/03/19 05:16:33;;;;;;;30.20;13.40;;;;;;;0.39;100.00;96125.25;5038964;28;20209;-72
2021/03/19 05:18:59;;;;;;;33.73;13.47;;;;;;;0.36;100.00;96128.91;5039217;28;20221;-73
2021/03/19 05:21:25;;;;;;;31.20;13.90;;;;;;;0.38;100.00;96126.19;5039284;28;20298;-72
2021/03/19 05:23:52;;;;;;;33.07;13.70;;;;;;;0.33;100.00;96129.16;5039120;28;20691;-72
2021/03/19 05:26:18;;;;;;;34.97;13.27;;;;;;;0.25;100.00;96130.66;5038179;28;20225;-73
2021/03/19 05:28:44;;;;;;;33.57;13.87;;;;;;;0.32;100.00;96119.72;5039616;28;20237;-73
2021/03/19 05:31:10;;;;;;;28.00;12.73;;;;;;;0.54;100.00;96126.66;5038897;28;20199;-73
2021/03/19 05:33:44;;;;;;;28.00;13.07;;;;;;;0.54;100.00;96124.06;5039359;28;20732;-72
2021/03/19 05:36:11;;;;;;;30.10;13.33;;;;;;;0.53;100.00;96135.38;5038032;28;20229;-72
2021/03/19 05:38:37;;;;;;;29.13;12.80;;;;;;;0.64;100.00;96125.81;5039059;28;20224;-72
2021/03/19 05:41:05;;;;;;;29.70;12.30;;;;;;;0.63;100.00;96134.53;5039803;28;20204;-72
2021/03/19 05:43:36;;;;;;;29.20;12.03;;;;;;;0.60;100.00;96137.38;5039265;28;20594;-72
2021/03/19 05:46:06;;;;;;;27.40;13.40;;;;;;;0.57;100.00;96142.78;5038119;28;20310;-73
2021/03/19 05:48:40;;;;;;;30.77;12.67;;;;;;;0.69;100.00;96141.84;5039821;28;20657;-72
2021/03/19 05:51:15;;;;;;;31.77;12.93;;;;;;;0.69;100.00;96139.25;5038237;28;21006;-73
2021/03/19 05:53:44;;;;;;;27.83;12.80;;;;;;;0.77;100.00;96139.47;5038882;28;20228;-73
2021/03/19 05:56:16;;;;;;;38.23;15.87;;;;;;;0.68;100.00;96145.38;5038519;28;20239;-73
2021/03/19 05:58:44;;;;;;;39.60;15.37;;;;;;;0.65;100.00;96151.63;5038849;28;20252;-71
2021/03/19 06:01:11;;;;;;;36.60;15.00;;;;;;;0.70;100.00;96146.06;5039092;28;20201;-72
2021/03/19 06:03:37;;;;;;;35.53;15.50;;;;;;;0.83;100.00;96144.19;5038855;28;20193;-72
2021/03/19 06:06:05;;;;;;;36.93;15.97;;;;;;;0.94;100.00;96144.97;5037854;28;20275;-71
2021/03/19 06:08:34;;;;;;;38.83;15.80;;;;;;;1.07;100.00;96131.84;5038580;28;20204;-72
2021/03/19 06:11:08;;;;;;;42.63;16.70;;;;;;;0.92;100.00;96138.25;5038524;28;20594;-72
2021/03/19 06:13:48;;;;;;;40.77;17.23;;;;;;;0.98;100.00;96140.34;5038348;28;20215;-72
2021/03/19 06:16:30;;;;;;;42.53;16.53;;;;;;;1.00;100.00;96149.66;5037439;28;20236;-73
2021/03/19 06:18:57;;;;;;;37.40;16.57;;;;;;;0.98;100.00;96148.97;5038931;28;20233;-72
2021/03/19 06:21:26;;;;;;;41.30;16.47;;;;;;;0.97;100.00;96146.47;5038622;28;20207;-73
2021/03/19 06:24:08;;;;;;;39.83;15.90;;;;;;;1.08;100.00;96142.06;5038073;28;20235;-72
2021/03/19 06:26:36;;;;;;;38.03;15.60;;;;;;;1.01;100.00;96138.34;5037853;28;20631;-72
2021/03/19 06:29:14;;;;;;;39.20;15.03;;;;;;;1.01;100.00;96147.91;5038028;28;20282;-73
2021/03/19 06:31:43;;;;;;;40.37;18.03;;;;;;;1.02;100.00;96149.53;5038196;28;20224;-72
2021/03/19 06:34:13;;;;;;;43.43;18.00;;;;;;;0.97;100.00;96149.91;5037485;28;20197;-72
2021/03/19 06:36:57;;;;;;;42.73;17.17;;;;;;;1.02;100.00;96155.56;5037402;28;20680;-72
2021/03/19 06:39:27;;;;;;;37.70;17.67;;;;;;;1.13;100.00;96154.69;5037733;28;20224;-73
2021/03/19 06:42:13;;;;;;;42.37;17.33;;;;;;;1.26;100.00;96148.38;5037921;28;20207;-72
2021/03/19 06:44:41;;;;;;;39.07;16.57;;;;;;;1.26;100.00;96154.44;5037847;28;20730;-73
2021/03/19 06:47:13;;;;;;;44.83;17.33;;;;;;;1.31;100.00;96152.28;5037371;28;20201;-72
2021/03/19 06:49:53;;;;;;;39.53;16.27;;;;;;;1.46;100.00;96161.41;5038304;28;20255;-72
2021/03/19 06:52:26;;;;;;;40.27;16.53;;;;;;;1.50;100.00;96160.25;5037531;28;20307;-75
2021/03/19 06:54:55;;;;;;;45.30;19.20;;;;;;;1.51;100.00;96163.66;5037759;28;20224;-72
2021/03/19 06:57:22;;;;;;;43.80;18.13;;;;;;;1.43;100.00;96166.03;5037116;28;20232;-72
2021/03/19 06:59:52;;;;;;;41.53;16.80;;;;;;;1.31;100.00;96170.44;5038143;28;20285;-72
2021/03/19 07:02:49;;;;;;;37.97;15.73;;;;;;;1.47;100.00;96177.81;5036929;28;20209;-72
2021/03/19 07:05:30;;;;;;;44.20;16.93;;;;;;;1.54;100.00;96174.63;5036621;28;20579;-73
2021/03/19 07:08:11;;;;;;;41.63;17.17;;;;;;;1.69;100.00;96170.75;5037751;28;20197;-72
2021/03/19 07:10:47;;;;;;;41.87;15.63;;;;;;;1.51;100.00;96169.66;5037017;28;20209;-72
2021/03/19 07:13:39;;;;;;;43.53;17.10;;;;;;;1.54;100.00;96168.59;5037615;28;20205;-73
2021/03/19 07:16:13;;;;;;;41.10;16.87;;;;;;;1.56;100.00;96172.69;5036509;28;20221;-73
2021/03/19 07:19:11;;;;;;;38.17;16.77;;;;;;;1.62;100.00;96180.00;5037526;28;20242;-72
2021/03/19 07:21:56;;;;;;;40.33;16.27;;;;;;;1.63;100.00;96180.81;5037330;28;20262;-73
2021/03/19 07:24:38;;;;;;;37.53;16.17;;;;;;;1.57;100.00;96178.75;5036465;28;20587;-73
2021/03/19 07:27:26;;;;;;;37.97;16.10;;;;;;;1.65;100.00;96179.75;5036029;28;20201;-73
2021/03/19 07:30:02;;;;;;;35.00;15.53;;;;;;;1.62;100.00;96180.00;5036807;28;20208;-73
2021/03/19 07:33:12;;;;;;;35.20;15.27;;;;;;;1.71;100.00;96181.84;5036945;28;20220;-72
2021/03/19 07:35:51;;;;;;;38.33;16.40;;;;;;;1.63;100.00;96184.25;5036045;28;20228;-72
2021/03/19 07:38:59;;;;;;;39.63;16.10;;;;;;;1.83;100.00;96193.81;5037017;28;20221;-73
2021/03/19 07:41:38;;;;;;;35.27;15.87;;;;;;;1.92;100.00;96191.31;5036851;28;20212;-72
2021/03/19 07:44:28;;;;;;;37.63;16.47;;;;;;;1.95;100.00;96193.66;5036442;28;20204;-72
2021/03/19 07:47:08;;;;;;;35.97;15.40;;;;;;;2.02;100.00;96197.38;5036057;28;20197;-73
2021/03/19 07:50:02;;;;;;;33.97;15.80;;;;;;;1.98;100.00;96198.59;5036932;28;20204;-72
2021/03/19 07:52:43;;;;;;;35.20;15.13;;;;;;;2.03;100.00;96201.63;5036273;28;20211;-72
2021/03/19 07:55:17;;;;;;;35.47;15.83;;;;;;;1.95;100.00;96200.63;5036144;28;20664;-73
2021/03/19 07:57:53;;;;;;;37.77;17.27;;;;;;;1.97;100.00;96203.91;5036504;28;20232;-73
2021/03/19 08:00:22;;;;;;;40.07;16.43;;;;;;;2.12;100.00;96202.66;5036461;28;20200;-72
2021/03/19 08:03:01;;;;;;;44.40;17.20;;;;;;;2.30;100.00;96201.94;5036603;28;20197;-73
2021/03/19 08:05:38;;;;;;;39.43;16.27;;;;;;;2.36;100.00;96200.63;5036038;28;20220;-73
2021/03/19 08:08:14;;;;;;;35.57;16.30;;;;;;;2.43;100.00;96203.41;5036180;28;20605;-73
2021/03/19 08:10:51;;;;;;;37.03;15.40;;;;;;;2.44;100.00;96207.66;5036235;28;21004;-73
2021/03/19 08:13:31;;;;;;;35.57;15.63;;;;;;;2.41;100.00;96212.28;5036367;28;20262;-73
2021/03/19 08:16:02;;;;;;;34.57;15.93;;;;;;;2.55;100.00;96207.56;5035724;28;20789;-73
2021/03/19 08:18:33;;;;;;;34.77;16.40;;;;;;;2.35;100.00;96204.16;5035852;28;20220;-73
2021/03/19 08:21:20;;;;;;;40.57;17.57;;;;;;;2.48;100.00;96211.63;5036895;28;20259;-73
2021/03/19 08:23:58;;;;;;;38.77;16.93;;;;;;;2.79;100.00;96204.63;5036551;28;20268;-73
2021/03/19 08:26:28;;;;;;;38.60;17.97;;;;;;;2.94;100.00;96205.94;5035460;28;20211;-73
2021/03/19 08:28:59;;;;;;;36.17;16.70;;;;;;;2.81;100.00;96202.75;5036425;28;20525;-73
2021/03/19 08:31:34;;;;;;;37.43;16.83;;;;;;;2.99;100.00;96212.38;5036607;28;20216;-73
2021/03/19 08:34:12;;;;;;;33.43;16.13;;;;;;;2.87;100.00;96210.84;5037070;28;20200;-73
2021/03/19 08:36:42;;;;;;;33.73;16.83;;;;;;;2.75;100.00;96219.69;5040026;28;20212;-73
2021/03/19 08:39:19;;;;;;;42.47;18.90;;;;;;;2.82;100.00;96214.81;5040550;28;20224;-73
2021/03/19 08:41:49;;;;;;;43.03;18.37;;;;;;;3.02;100.00;96215.56;5039925;28;20208;-73
2021/03/19 08:44:19;;;;;;;41.10;17.20;;;;;;;3.12;100.00;96218.19;5040316;28;20204;-73
2021/03/19 08:46:49;;;;;;;39.57;17.73;;;;;;;3.13;98.33;96222.44;5039864;28;20620;-73
2021/03/19 08:49:38;;;;;;;35.23;16.80;;;;;;;3.04;98.45;96218.84;5040342;28;20193;-73
2021/03/19 08:52:23;;;;;;;34.13;17.40;;;;;;;3.13;100.00;96225.03;5040014;28;20205;-73
2021/03/19 08:55:23;;;;;;;37.10;17.67;;;;;;;3.17;100.00;96226.41;5040164;28;20228;-73
2021/03/19 08:57:50;;;;;;;38.10;17.53;;;;;;;3.18;100.00;96222.84;5039680;28;20228;-73
2021/03/19 09:00:49;;;;;;;28.93;13.10;;;;;;;2.93;100.00;96227.69;5039696;28;20587;-73
2021/03/19 09:03:49;;;;;;;32.20;16.23;;;;;;;2.99;100.00;96227.19;5039732;28;20582;-73
2021/03/19 09:06:16;;;;;;;37.50;16.57;;;;;;;3.25;100.00;96224.00;5038887;28;20744;-73
2021/03/19 09:08:59;;;;;;;34.43;16.37;;;;;;;3.35;98.55;96222.25;5038865;28;20205;-74
2021/03/19 09:12:09;;;;;;;29.97;15.33;;;;;;;3.41;96.46;96222.53;5039750;28;20200;-73
2021/03/19 09:14:39;;;;;;;30.73;15.43;;;;;;;3.47;97.50;96223.75;5016298;28;20221;-73
2021/03/19 09:17:06;;;;;;;31.40;15.47;;;;;;;3.58;98.15;96226.22;5037334;28;20708;-73
2021/03/19 09:20:11;;;;;;;31.13;16.63;;;;;;;3.35;99.44;96227.44;5038123;28;20224;-73
2021/03/19 09:22:43;;;;;;;35.13;15.60;;;;;;;3.34;100.00;96228.41;5038999;28;20205;-73
2021/03/19 09:25:37;;;;;;;35.20;16.50;;;;;;;3.40;100.00;96233.03;5038365;28;20293;-73
2021/03/19 09:28:38;;;;;;;29.27;15.63;;;;;;;3.51;97.92;96235.56;5039397;28;20206;-73
2021/03/19 09:31:36;;;;;;;29.67;15.57;;;;;;;3.65;97.48;96233.38;5027645;28;20215;-73
2021/03/19 09:34:14;;;;;;;29.07;14.80;;;;;;;3.60;97.13;96232.13;5038310;28;20201;-73
2021/03/19 09:36:52;;;;;;;29.67;15.10;;;;;;;3.26;98.72;96236.88;5038441;28;20205;-73
2021/03/19 09:39:58;;;;;;;32.53;16.20;;;;;;;3.20;100.00;96241.78;5038668;28;20217;-73
2021/03/19 09:42:49;;;;;;;35.30;15.47;;;;;;;3.17;98.14;96229.00;5039200;28;20205;-73
2021/03/19 09:45:21;;;;;;;34.73;16.43;;;;;;;3.08;100.00;96237.63;5037293;28;21170;-73
2021/03/19 09:47:50;;;;;;;30.83;15.50;;;;;;;3.07;100.00;96239.41;5038359;28;20201;-73
2021/03/19 09:50:20;;;;;;;34.90;16.47;;;;;;;3.16;100.00;96240.41;5038346;28;20200;-73
2021/03/19 09:52:57;;;;;;;33.20;16.47;;;;;;;3.24;100.00;96238.78;5038838;28;20209;-73
2021/03/19 09:55:26;;;;;;;33.13;15.93;;;;;;;3.51;99.45;96240.75;5037481;28;20223;-73
2021/03/19 09:57:53;;;;;;;32.37;16.20;;;;;;;3.60;97.92;96247.75;5038027;28;20228;-72
2021/03/19 10:00:22;;;;;;;33.07;17.13;;;;;;;3.60;97.66;96245.16;5038546;28;21291;-73
2021/03/19 10:02:48;;;;;;;35.10;16.83;;;;;;;3.70;96.42;96247.66;5038857;28;20201;-73
2021/03/19 10:05:18;;;;;;;32.13;15.73;;;;;;;3.58;100.00;96249.66;5037396;28;20217;-73
2021/03/19 10:07:47;;;;;;;32.60;17.03;;;;;;;3.62;98.00;96244.06;5038529;28;20201;-73
2021/03/19 10:10:36;;;;;;;32.93;15.97;;;;;;;3.77;96.19;96242.72;5038407;28;20238;-73
2021/03/19 10:13:09;;;;;;;32.73;15.73;;;;;;;3.87;93.54;96244.38;5033178;28;20204;-73
2021/03/19 10:15:35;;;;;;;28.77;14.13;;;;;;;4.00;94.13;96244.91;5037811;28;20221;-74
2021/03/19 10:18:05;;;;;;;26.33;14.20;;;;;;;4.09;89.89;96238.88;5038216;28;20236;-73
2021/03/19 10:20:34;;;;;;;23.97;12.73;;;;;;;3.91;90.46;96247.53;5037370;28;20245;-73
2021/03/19 10:23:11;;;;;;;25.80;13.37;;;;;;;3.85;91.52;96241.06;5038101;28;20909;-73
2021/03/19 10:25:40;;;;;;;23.50;11.40;;;;;;;4.08;89.09;96245.06;5037430;28;20224;-73
2021/03/19 10:28:19;;;;;;;21.43;11.60;;;;;;;4.05;86.50;96239.28;5037789;28;20237;-73
2021/03/19 10:30:50;;;;;;;29.47;13.30;;;;;;;4.38;87.52;96239.69;5037719;28;20615;-73
2021/03/19 10:33:20;;;;;;;22.23;11.97;;;;;;;4.27;85.40;96243.25;5038261;28;20205;-73
2021/03/19 10:35:50;;;;;;;20.63;10.77;;;;;;;4.19;85.21;96239.72;5037221;28;20229;-73
2021/03/19 10:38:26;;;;;;;20.37;11.30;;;;;;;4.36;83.35;96233.78;5038030;28;20224;-73
2021/03/19 10:40:58;;;;;;;24.83;12.27;;;;;;;4.08;88.54;96239.84;5038029;28;20238;-73
2021/03/19 10:43:32;;;;;;;23.60;11.30;;;;;;;4.21;85.56;96242.97;5038087;28;20201;-73
2021/03/19 10:46:03;;;;;;;23.57;11.10;;;;;;;4.28;85.25;96239.69;5036430;28;20763;-72
2021/03/19 10:48:38;;;;;;;19.60;9.40;;;;;;;4.23;82.56;96244.50;5037581;28;20205;-73
2021/03/19 10:51:13;;;;;;;19.13;9.80;;;;;;;4.12;84.56;96235.19;5037664;28;20254;-73
2021/03/19 10:53:45;;;;;;;21.17;10.73;;;;;;;4.07;86.74;96240.78;5036985;28;20193;-73
2021/03/19 10:56:12;;;;;;;22.07;10.67;;;;;;;4.34;84.10;96233.09;5036619;28;20737;-73
2021/03/19 10:58:43;;;;;;;18.63;10.53;;;;;;;4.45;81.67;96243.38;5037076;28;21060;-73
2021/03/19 11:01:31;;;;;;;20.87;10.50;;;;;;;4.25;82.76;96241.75;5036951;28;20205;-73
2021/03/19 11:03:59;;;;;;;20.93;10.03;;;;;;;4.77;80.76;96238.63;5037275;28;20247;-73
2021/03/19 11:06:36;;;;;;;20.40;10.47;;;;;;;4.97;80.48;96234.00;5037558;28;20211;-73
2021/03/19 11:09:11;;;;;;;21.13;11.57;;;;;;;5.20;80.22;96232.69;5037088;28;20644;-73
2021/03/19 11:11:38;;;;;;;19.40;9.90;;;;;;;5.25;77.64;96238.28;5037115;28;20201;-73
2021/03/19 11:14:07;;;;;;;23.63;11.17;;;;;;;5.73;79.65;96225.78;5037083;28;20201;-73
2021/03/19 11:16:36;;;;;;;25.20;11.57;;;;;;;5.73;77.31;96223.19;5036649;28;20646;-73
2021/03/19 11:19:06;;;;;;;23.87;12.17;;;;;;;6.01;75.44;96223.00;5036944;28;20213;-72
2021/03/19 11:21:33;;;;;;;22.47;11.77;;;;;;;6.20;73.54;96223.66;5037183;28;20205;-73
2021/03/19 11:24:06;;;;;;;28.57;12.13;;;;;;;5.97;72.65;96216.41;5036590;28;20266;-73
2021/03/19 11:26:35;;;;;;;20.63;11.57;;;;;;;6.06;77.34;96221.56;5036095;28;20778;-73
2021/03/19 11:29:24;;;;;;;23.97;11.90;;;;;;;5.77;75.07;96214.09;5036710;28;20197;-73
2021/03/19 11:31:59;;;;;;;22.93;11.93;;;;;;;6.02;75.91;96213.34;5036946;28;20205;-74
2021/03/19 11:34:31;;;;;;;27.57;13.03;;;;;;;6.15;81.82;96215.44;5036650;28;20242;-74
2021/03/19 11:37:01;;;;;;;23.00;11.73;;;;;;;6.44;76.41;96215.16;5036500;28;20288;-73
2021/03/19 11:39:56;;;;;;;19.00;10.40;;;;;;;6.61;69.00;96214.31;5036760;28;20252;-73
2021/03/19 11:42:25;;;;;;;23.30;11.73;;;;;;;6.89;73.92;96206.97;5036127;28;20201;-74
2021/03/19 11:44:55;;;;;;;21.70;9.80;;;;;;;7.31;71.62;96208.63;5036677;28;20257;-73
2021/03/19 11:47:23;;;;;;;21.07;11.07;;;;;;;7.85;65.66;96202.88;5036330;28;20201;-73
2021/03/19 11:49:51;;;;;;;21.47;10.70;;;;;;;7.43;63.43;96198.69;5036628;28;20205;-73